sensor_id;sensor_type;location;lat;lon;timestamp;P1;durP1;ratioP1;P2;durP2;ratioP2
11655;SDS011;5884;43.618;1.438;2023-04-01T04:45:11;35.57;;;4.73;;
11655;SDS011;5884;43.618;1.438;2023-04-01T04:47:38;26.90;;;5.13;;
11655;SDS011;5884;43.618;1.438;2023-04-01T04:50:06;29.90;;;5.23;;
11655;SDS011;5884;43.618;1.438;2023-04-01T04:52:35;32.93;;;4.87;;
11655;SDS011;5884;43.618;1.438;2023-04-01T04:55:02;31.47;;;6.03;;
11655;SDS011;5884;43.618;1.438;2023-04-01T04:57:30;29.97;;;4.47;;
11655;SDS011;5884;43.618;1.438;2023-04-01T04:59:58;26.57;;;4.67;;
11655;SDS011;5884;43.618;1.438;2023-04-01T05:02:26;36.53;;;4.87;;
11655;SDS011;5884;43.618;1.438;2023-04-01T05:04:54;26.33;;;5.20;;
11655;SDS011;5884;43.618;1.438;2023-04-01T05:07:21;22.60;;;4.53;;
11655;SDS011;5884;43.618;1.438;2023-04-01T05:09:48;27.37;;;4.83;;
11655;SDS011;5884;43.618;1.438;2023-04-01T05:12:15;29.17;;;4.90;;
11655;SDS011;5884;43.618;1.438;2023-04-01T05:14:43;24.03;;;4.83;;
11655;SDS011;5884;43.618;1.438;2023-04-01T05:17:10;24.90;;;4.67;;
11655;SDS011;5884;43.618;1.438;2023-04-01T05:19:39;27.40;;;5.33;;
11655;SDS011;5884;43.618;1.438;2023-04-01T05:22:07;30.07;;;5.23;;
11655;SDS011;5884;43.618;1.438;2023-04-01T05:24:34;22.67;;;4.47;;
11655;SDS011;5884;43.618;1.438;2023-04-01T05:27:02;27.87;;;4.97;;
11655;SDS011;5884;43.618;1.438;2023-04-01T05:29:29;25.53;;;5.07;;
11655;SDS011;5884;43.618;1.438;2023-04-01T05:31:56;28.73;;;5.03;;
11655;SDS011;5884;43.618;1.438;2023-04-01T05:34:23;27.57;;;4.60;;
11655;SDS011;5884;43.618;1.438;2023-04-01T05:36:52;23.30;;;4.37;;
11655;SDS011;5884;43.618;1.438;2023-04-01T05:39:19;30.87;;;5.23;;
11655;SDS011;5884;43.618;1.438;2023-04-01T05:41:46;32.03;;;4.60;;
11655;SDS011;5884;43.618;1.438;2023-04-01T05:44:14;30.97;;;4.87;;
11655;SDS011;5884;43.618;1.438;2023-04-01T05:46:41;28.67;;;4.97;;
11655;SDS011;5884;43.618;1.438;2023-04-01T05:49:08;30.90;;;5.07;;
11655;SDS011;5884;43.618;1.438;2023-04-01T05:51:36;32.03;;;5.37;;
11655;SDS011;5884;43.618;1.438;2023-04-01T05:54:05;33.33;;;4.80;;
11655;SDS011;5884;43.618;1.438;2023-04-01T05:56:32;24.40;;;4.63;;
11655;SDS011;5884;43.618;1.438;2023-04-01T05:58:59;22.63;;;4.93;;
11655;SDS011;5884;43.618;1.438;2023-04-01T06:01:27;22.47;;;5.00;;
11655;SDS011;5884;43.618;1.438;2023-04-01T06:03:54;27.63;;;4.73;;
11655;SDS011;5884;43.618;1.438;2023-04-01T06:06:23;30.30;;;5.17;;
11655;SDS011;5884;43.618;1.438;2023-04-01T06:08:52;33.97;;;5.60;;
11655;SDS011;5884;43.618;1.438;2023-04-01T06:11:25;24.03;;;5.03;;
11655;SDS011;5884;43.618;1.438;2023-04-01T06:14:10;27.23;;;5.33;;
11655;SDS011;5884;43.618;1.438;2023-04-01T06:16:51;36.60;;;5.57;;
11655;SDS011;5884;43.618;1.438;2023-04-01T06:19:33;32.77;;;4.83;;
11655;SDS011;5884;43.618;1.438;2023-04-01T06:22:21;27.90;;;4.47;;
11655;SDS011;5884;43.618;1.438;2023-04-01T06:25:27;28.97;;;5.30;;
11655;SDS011;5884;43.618;1.438;2023-04-01T06:28:13;33.27;;;5.40;;
11655;SDS011;5884;43.618;1.438;2023-04-01T06:31:10;35.73;;;5.00;;
11655;SDS011;5884;43.618;1.438;2023-04-01T06:33:54;24.83;;;4.57;;
11655;SDS011;5884;43.618;1.438;2023-04-01T06:36:43;26.90;;;5.20;;
11655;SDS011;5884;43.618;1.438;2023-04-01T06:39:39;32.17;;;5.03;;
11655;SDS011;5884;43.618;1.438;2023-04-01T06:45:29;23.23;;;5.17;;
11655;SDS011;5884;43.618;1.438;2023-04-01T06:48:09;32.33;;;6.03;;
11655;SDS011;5884;43.618;1.438;2023-04-01T06:50:51;22.90;;;4.47;;
11655;SDS011;5884;43.618;1.438;2023-04-01T06:53:29;27.70;;;4.60;;
11655;SDS011;5884;43.618;1.438;2023-04-01T06:56:07;23.33;;;4.83;;
11655;SDS011;5884;43.618;1.438;2023-04-01T06:58:37;23.97;;;4.50;;
11655;SDS011;5884;43.618;1.438;2023-04-01T07:01:12;23.40;;;5.07;;
11655;SDS011;5884;43.618;1.438;2023-04-01T07:03:45;29.50;;;4.90;;
11655;SDS011;5884;43.618;1.438;2023-04-01T07:06:23;25.77;;;4.63;;
11655;SDS011;5884;43.618;1.438;2023-04-01T07:08:58;25.27;;;4.77;;
11655;SDS011;5884;43.618;1.438;2023-04-01T07:11:30;28.20;;;5.03;;
11655;SDS011;5884;43.618;1.438;2023-04-01T07:14:01;26.50;;;4.97;;
11655;SDS011;5884;43.618;1.438;2023-04-01T07:16:37;29.77;;;4.93;;
11655;SDS011;5884;43.618;1.438;2023-04-01T07:19:12;25.70;;;5.03;;
11655;SDS011;5884;43.618;1.438;2023-04-01T07:21:47;24.37;;;5.00;;
11655;SDS011;5884;43.618;1.438;2023-04-01T07:24:21;26.43;;;4.20;;
11655;SDS011;5884;43.618;1.438;2023-04-01T07:26:52;31.57;;;4.93;;
11655;SDS011;5884;43.618;1.438;2023-04-01T07:29:22;26.53;;;4.43;;
11655;SDS011;5884;43.618;1.438;2023-04-01T07:35:07;28.47;;;4.33;;
11655;SDS011;5884;43.618;1.438;2023-04-01T07:37:59;21.97;;;4.13;;
11655;SDS011;5884;43.618;1.438;2023-04-01T07:40:45;21.60;;;4.47;;
11655;SDS011;5884;43.618;1.438;2023-04-01T07:46:14;25.07;;;5.50;;
11655;SDS011;5884;43.618;1.438;2023-04-01T07:48:57;23.83;;;5.27;;
11655;SDS011;5884;43.618;1.438;2023-04-01T07:51:31;23.77;;;4.87;;
11655;SDS011;5884;43.618;1.438;2023-04-01T07:54:09;27.77;;;5.10;;
11655;SDS011;5884;43.618;1.438;2023-04-01T07:56:43;24.90;;;4.73;;
11655;SDS011;5884;43.618;1.438;2023-04-01T07:59:18;29.47;;;5.60;;
11655;SDS011;5884;43.618;1.438;2023-04-01T08:01:54;23.50;;;4.97;;
11655;SDS011;5884;43.618;1.438;2023-04-01T08:04:47;29.63;;;4.97;;
11655;SDS011;5884;43.618;1.438;2023-04-01T08:07:28;31.20;;;5.50;;
11655;SDS011;5884;43.618;1.438;2023-04-01T08:10:05;35.37;;;5.87;;
11655;SDS011;5884;43.618;1.438;2023-04-01T08:12:42;26.33;;;4.87;;
11655;SDS011;5884;43.618;1.438;2023-04-01T08:15:21;30.97;;;4.97;;
11655;SDS011;5884;43.618;1.438;2023-04-01T08:17:56;25.80;;;4.90;;
11655;SDS011;5884;43.618;1.438;2023-04-01T08:20:36;26.20;;;5.33;;
11655;SDS011;5884;43.618;1.438;2023-04-01T08:23:11;27.07;;;4.93;;
11655;SDS011;5884;43.618;1.438;2023-04-01T08:25:42;33.10;;;6.07;;
11655;SDS011;5884;43.618;1.438;2023-04-01T08:28:19;23.37;;;4.57;;
11655;SDS011;5884;43.618;1.438;2023-04-01T08:30:51;29.13;;;4.63;;
11655;SDS011;5884;43.618;1.438;2023-04-01T08:33:24;29.77;;;5.37;;
11655;SDS011;5884;43.618;1.438;2023-04-01T08:35:56;22.87;;;4.87;;
11655;SDS011;5884;43.618;1.438;2023-04-01T08:38:31;23.83;;;5.47;;
11655;SDS011;5884;43.618;1.438;2023-04-01T08:41:08;29.80;;;5.00;;
11655;SDS011;5884;43.618;1.438;2023-04-01T08:47:09;24.77;;;4.87;;
11655;SDS011;5884;43.618;1.438;2023-04-01T08:53:27;25.10;;;4.53;;
11655;SDS011;5884;43.618;1.438;2023-04-01T08:56:22;19.90;;;3.60;;
11655;SDS011;5884;43.618;1.438;2023-04-01T08:58:57;16.23;;;4.10;;
11655;SDS011;5884;43.618;1.438;2023-04-01T09:01:55;19.53;;;3.80;;
11655;SDS011;5884;43.618;1.438;2023-04-01T09:04:49;16.43;;;3.30;;
11655;SDS011;5884;43.618;1.438;2023-04-01T09:07:53;17.57;;;3.17;;
11655;SDS011;5884;43.618;1.438;2023-04-01T09:10:55;22.47;;;4.80;;
11655;SDS011;5884;43.618;1.438;2023-04-01T09:16:53;13.57;;;2.67;;
11655;SDS011;5884;43.618;1.438;2023-04-01T09:19:50;12.53;;;2.40;;
11655;SDS011;5884;43.618;1.438;2023-04-01T09:22:37;11.60;;;2.33;;
11655;SDS011;5884;43.618;1.438;2023-04-01T09:25:28;10.70;;;2.53;;
11655;SDS011;5884;43.618;1.438;2023-04-01T09:28:25;8.83;;;2.30;;
11655;SDS011;5884;43.618;1.438;2023-04-01T09:31:04;9.33;;;2.03;;
11655;SDS011;5884;43.618;1.438;2023-04-01T09:34:05;9.83;;;1.97;;
11655;SDS011;5884;43.618;1.438;2023-04-01T09:37:01;9.03;;;1.93;;
11655;SDS011;5884;43.618;1.438;2023-04-01T09:39:52;11.37;;;2.40;;
11655;SDS011;5884;43.618;1.438;2023-04-01T09:42:45;8.60;;;2.30;;
11655;SDS011;5884;43.618;1.438;2023-04-01T09:45:40;8.03;;;1.70;;
11655;SDS011;5884;43.618;1.438;2023-04-01T09:48:27;9.63;;;1.93;;
11655;SDS011;5884;43.618;1.438;2023-04-01T09:51:23;10.00;;;2.63;;
11655;SDS011;5884;43.618;1.438;2023-04-01T09:54:02;7.20;;;1.93;;
11655;SDS011;5884;43.618;1.438;2023-04-01T09:56:56;9.00;;;1.77;;
11655;SDS011;5884;43.618;1.438;2023-04-01T10:03:18;13.57;;;2.67;;
11655;SDS011;5884;43.618;1.438;2023-04-01T10:13:16;9.30;;;2.63;;
11655;SDS011;5884;43.618;1.438;2023-04-01T10:19:49;9.47;;;2.00;;
11655;SDS011;5884;43.618;1.438;2023-04-01T10:39:37;9.17;;;2.43;;
11655;SDS011;5884;43.618;1.438;2023-04-01T10:42:43;9.23;;;3.13;;
11655;SDS011;5884;43.618;1.438;2023-04-01T10:45:41;14.63;;;2.23;;
11655;SDS011;5884;43.618;1.438;2023-04-01T10:55:22;14.87;;;2.77;;
11655;SDS011;5884;43.618;1.438;2023-04-01T11:05:35;14.57;;;2.80;;
11655;SDS011;5884;43.618;1.438;2023-04-01T11:09:05;12.30;;;2.97;;
11655;SDS011;5884;43.618;1.438;2023-04-01T11:15:48;16.27;;;3.10;;
11655;SDS011;5884;43.618;1.438;2023-04-01T11:19:12;12.80;;;3.33;;
11655;SDS011;5884;43.618;1.438;2023-04-01T11:22:40;14.13;;;2.67;;
11655;SDS011;5884;43.618;1.438;2023-04-01T11:25:24;16.20;;;3.00;;
11655;SDS011;5884;43.618;1.438;2023-04-01T11:31:44;16.27;;;3.23;;
11655;SDS011;5884;43.618;1.438;2023-04-01T11:34:29;12.07;;;3.40;;
11655;SDS011;5884;43.618;1.438;2023-04-01T11:37:20;11.97;;;2.33;;
11655;SDS011;5884;43.618;1.438;2023-04-01T11:40:05;11.17;;;2.20;;
11655;SDS011;5884;43.618;1.438;2023-04-01T11:42:49;11.83;;;2.17;;
11655;SDS011;5884;43.618;1.438;2023-04-01T11:45:32;8.13;;;1.83;;
11655;SDS011;5884;43.618;1.438;2023-04-01T11:48:08;10.77;;;2.10;;
11655;SDS011;5884;43.618;1.438;2023-04-01T11:51:21;8.70;;;2.13;;
11655;SDS011;5884;43.618;1.438;2023-04-01T11:54:19;8.60;;;2.30;;
11655;SDS011;5884;43.618;1.438;2023-04-01T11:57:31;6.67;;;1.60;;
11655;SDS011;5884;43.618;1.438;2023-04-01T12:00:14;5.13;;;1.70;;
11655;SDS011;5884;43.618;1.438;2023-04-01T12:03:07;4.10;;;1.20;;
11655;SDS011;5884;43.618;1.438;2023-04-01T12:05:48;6.50;;;1.63;;
11655;SDS011;5884;43.618;1.438;2023-04-01T12:08:27;6.90;;;1.63;;
11655;SDS011;5884;43.618;1.438;2023-04-01T12:11:05;7.50;;;2.03;;
11655;SDS011;5884;43.618;1.438;2023-04-01T12:13:44;5.00;;;1.37;;
11655;SDS011;5884;43.618;1.438;2023-04-01T12:16:25;7.23;;;1.73;;
11655;SDS011;5884;43.618;1.438;2023-04-01T12:19:07;6.73;;;1.73;;
11655;SDS011;5884;43.618;1.438;2023-04-01T12:21:43;5.20;;;1.47;;
11655;SDS011;5884;43.618;1.438;2023-04-01T12:24:28;6.43;;;1.53;;
11655;SDS011;5884;43.618;1.438;2023-04-01T12:27:27;8.30;;;1.50;;
11655;SDS011;5884;43.618;1.438;2023-04-01T12:33:27;10.00;;;2.37;;
11655;SDS011;5884;43.618;1.438;2023-04-01T12:36:33;8.00;;;2.23;;
11655;SDS011;5884;43.618;1.438;2023-04-01T12:39:17;10.17;;;1.93;;
11655;SDS011;5884;43.618;1.438;2023-04-01T12:42:05;5.80;;;1.73;;
11655;SDS011;5884;43.618;1.438;2023-04-01T12:44:52;7.70;;;1.93;;
11655;SDS011;5884;43.618;1.438;2023-04-01T12:50:59;5.60;;;1.27;;
11655;SDS011;5884;43.618;1.438;2023-04-01T12:57:12;9.77;;;2.70;;
11655;SDS011;5884;43.618;1.438;2023-04-01T12:59:56;6.93;;;1.93;;
11655;SDS011;5884;43.618;1.438;2023-04-01T13:02:39;5.60;;;1.80;;
11655;SDS011;5884;43.618;1.438;2023-04-01T13:05:27;9.60;;;2.03;;
11655;SDS011;5884;43.618;1.438;2023-04-01T13:08:36;9.30;;;1.57;;
11655;SDS011;5884;43.618;1.438;2023-04-01T13:11:13;6.17;;;1.20;;
11655;SDS011;5884;43.618;1.438;2023-04-01T13:16:48;9.33;;;1.67;;
11655;SDS011;5884;43.618;1.438;2023-04-01T13:19:21;9.10;;;1.30;;
11655;SDS011;5884;43.618;1.438;2023-04-01T13:21:57;6.80;;;1.70;;
11655;SDS011;5884;43.618;1.438;2023-04-01T13:24:36;7.57;;;1.60;;
11655;SDS011;5884;43.618;1.438;2023-04-01T13:27:14;6.63;;;1.60;;
11655;SDS011;5884;43.618;1.438;2023-04-01T13:29:57;7.77;;;1.37;;
11655;SDS011;5884;43.618;1.438;2023-04-01T13:32:44;5.40;;;1.47;;
11655;SDS011;5884;43.618;1.438;2023-04-01T13:35:22;6.73;;;1.30;;
11655;SDS011;5884;43.618;1.438;2023-04-01T13:38:04;9.23;;;1.47;;
11655;SDS011;5884;43.618;1.438;2023-04-01T13:41:18;6.67;;;1.60;;
11655;SDS011;5884;43.618;1.438;2023-04-01T13:44:09;5.50;;;1.27;;
11655;SDS011;5884;43.618;1.438;2023-04-01T13:46:44;7.97;;;1.47;;
11655;SDS011;5884;43.618;1.438;2023-04-01T13:49:47;3.53;;;1.43;;
11655;SDS011;5884;43.618;1.438;2023-04-01T13:52:42;4.57;;;1.13;;
11655;SDS011;5884;43.618;1.438;2023-04-01T13:55:35;7.07;;;1.80;;
11655;SDS011;5884;43.618;1.438;2023-04-01T13:58:22;4.57;;;1.40;;
11655;SDS011;5884;43.618;1.438;2023-04-01T14:01:05;8.30;;;1.63;;
11655;SDS011;5884;43.618;1.438;2023-04-01T14:03:44;8.73;;;1.37;;
11655;SDS011;5884;43.618;1.438;2023-04-01T14:06:40;9.80;;;1.80;;
11655;SDS011;5884;43.618;1.438;2023-04-01T14:09:28;5.40;;;1.57;;
11655;SDS011;5884;43.618;1.438;2023-04-01T14:12:13;10.83;;;2.03;;
11655;SDS011;5884;43.618;1.438;2023-04-01T14:15:00;6.47;;;1.60;;
11655;SDS011;5884;43.618;1.438;2023-04-01T14:17:52;8.50;;;1.70;;
11655;SDS011;5884;43.618;1.438;2023-04-01T14:20:36;7.83;;;1.60;;
11655;SDS011;5884;43.618;1.438;2023-04-01T14:26:22;7.47;;;1.77;;
11655;SDS011;5884;43.618;1.438;2023-04-01T14:29:21;9.17;;;1.80;;
11655;SDS011;5884;43.618;1.438;2023-04-01T14:32:02;8.67;;;2.07;;
11655;SDS011;5884;43.618;1.438;2023-04-01T14:34:42;6.90;;;1.73;;
11655;SDS011;5884;43.618;1.438;2023-04-01T14:37:27;6.17;;;1.67;;
11655;SDS011;5884;43.618;1.438;2023-04-01T14:40:28;9.80;;;2.33;;
11655;SDS011;5884;43.618;1.438;2023-04-01T14:43:42;6.47;;;2.30;;
11655;SDS011;5884;43.618;1.438;2023-04-01T14:46:44;6.73;;;1.83;;
11655;SDS011;5884;43.618;1.438;2023-04-01T14:49:42;7.53;;;1.70;;
11655;SDS011;5884;43.618;1.438;2023-04-01T14:52:14;6.97;;;1.97;;
11655;SDS011;5884;43.618;1.438;2023-04-01T14:54:44;10.77;;;2.10;;
11655;SDS011;5884;43.618;1.438;2023-04-01T14:57:15;12.13;;;1.73;;
11655;SDS011;5884;43.618;1.438;2023-04-01T14:59:51;7.77;;;1.50;;
11655;SDS011;5884;43.618;1.438;2023-04-01T15:02:28;6.27;;;1.63;;
11655;SDS011;5884;43.618;1.438;2023-04-01T15:05:10;7.27;;;2.10;;
11655;SDS011;5884;43.618;1.438;2023-04-01T15:08:00;7.63;;;1.83;;
11655;SDS011;5884;43.618;1.438;2023-04-01T15:10:46;7.37;;;1.50;;
11655;SDS011;5884;43.618;1.438;2023-04-01T15:13:29;4.70;;;1.23;;
11655;SDS011;5884;43.618;1.438;2023-04-01T15:16:23;6.30;;;1.80;;
11655;SDS011;5884;43.618;1.438;2023-04-01T15:19:03;7.30;;;1.80;;
11655;SDS011;5884;43.618;1.438;2023-04-01T15:21:44;7.53;;;1.50;;
11655;SDS011;5884;43.618;1.438;2023-04-01T15:24:34;6.13;;;1.40;;
11655;SDS011;5884;43.618;1.438;2023-04-01T15:27:29;6.67;;;1.37;;
11655;SDS011;5884;43.618;1.438;2023-04-01T15:33:06;6.33;;;1.37;;
11655;SDS011;5884;43.618;1.438;2023-04-01T15:36:02;5.33;;;1.20;;
11655;SDS011;5884;43.618;1.438;2023-04-01T15:38:42;5.67;;;1.30;;
11655;SDS011;5884;43.618;1.438;2023-04-01T15:41:16;5.67;;;1.47;;
11655;SDS011;5884;43.618;1.438;2023-04-01T15:43:49;5.93;;;1.37;;
11655;SDS011;5884;43.618;1.438;2023-04-01T15:46:24;4.97;;;1.57;;
11655;SDS011;5884;43.618;1.438;2023-04-01T15:49:11;6.20;;;1.70;;
11655;SDS011;5884;43.618;1.438;2023-04-01T15:52:00;5.47;;;1.43;;
11655;SDS011;5884;43.618;1.438;2023-04-01T15:54:52;5.83;;;1.47;;
11655;SDS011;5884;43.618;1.438;2023-04-01T15:57:45;5.10;;;1.70;;
11655;SDS011;5884;43.618;1.438;2023-04-01T16:00:22;7.90;;;1.90;;
11655;SDS011;5884;43.618;1.438;2023-04-01T16:03:00;5.73;;;1.83;;
11655;SDS011;5884;43.618;1.438;2023-04-01T16:06:01;5.67;;;1.50;;
11655;SDS011;5884;43.618;1.438;2023-04-01T16:09:27;7.33;;;1.40;;
11655;SDS011;5884;43.618;1.438;2023-04-01T16:12:15;4.43;;;1.40;;
11655;SDS011;5884;43.618;1.438;2023-04-01T16:14:51;8.00;;;1.60;;
11655;SDS011;5884;43.618;1.438;2023-04-01T16:17:31;8.47;;;1.63;;
11655;SDS011;5884;43.618;1.438;2023-04-01T16:20:22;6.33;;;1.27;;
11655;SDS011;5884;43.618;1.438;2023-04-01T16:23:10;7.67;;;1.17;;
11655;SDS011;5884;43.618;1.438;2023-04-01T16:25:49;6.53;;;1.40;;
11655;SDS011;5884;43.618;1.438;2023-04-01T16:28:29;5.23;;;1.47;;
11655;SDS011;5884;43.618;1.438;2023-04-01T16:31:03;7.97;;;1.83;;
11655;SDS011;5884;43.618;1.438;2023-04-01T16:33:38;8.60;;;1.43;;
11655;SDS011;5884;43.618;1.438;2023-04-01T16:36:17;5.33;;;1.40;;
11655;SDS011;5884;43.618;1.438;2023-04-01T16:38:55;7.00;;;1.37;;
11655;SDS011;5884;43.618;1.438;2023-04-01T16:41:41;7.17;;;1.93;;
11655;SDS011;5884;43.618;1.438;2023-04-01T16:44:17;6.57;;;2.17;;
11655;SDS011;5884;43.618;1.438;2023-04-01T16:46:49;6.03;;;1.43;;
11655;SDS011;5884;43.618;1.438;2023-04-01T16:49:27;3.27;;;1.20;;
11655;SDS011;5884;43.618;1.438;2023-04-01T16:52:12;5.40;;;1.20;;
11655;SDS011;5884;43.618;1.438;2023-04-01T16:54:44;5.33;;;1.23;;
11655;SDS011;5884;43.618;1.438;2023-04-01T16:57:21;6.63;;;1.30;;
11655;SDS011;5884;43.618;1.438;2023-04-01T16:59:58;10.07;;;1.40;;
11655;SDS011;5884;43.618;1.438;2023-04-01T17:02:37;6.77;;;1.60;;
11655;SDS011;5884;43.618;1.438;2023-04-01T17:05:13;4.67;;;1.20;;
11655;SDS011;5884;43.618;1.438;2023-04-01T17:07:44;4.07;;;1.33;;
11655;SDS011;5884;43.618;1.438;2023-04-01T17:10:27;5.67;;;1.90;;
11655;SDS011;5884;43.618;1.438;2023-04-01T17:16:19;7.67;;;1.87;;
11655;SDS011;5884;43.618;1.438;2023-04-01T17:19:25;8.57;;;1.67;;
11655;SDS011;5884;43.618;1.438;2023-04-01T17:22:16;8.20;;;1.70;;
11655;SDS011;5884;43.618;1.438;2023-04-01T17:25:01;8.27;;;1.60;;
11655;SDS011;5884;43.618;1.438;2023-04-01T17:27:50;8.07;;;2.07;;
11655;SDS011;5884;43.618;1.438;2023-04-01T17:30:34;5.33;;;1.83;;
11655;SDS011;5884;43.618;1.438;2023-04-01T17:33:15;9.03;;;2.13;;
11655;SDS011;5884;43.618;1.438;2023-04-01T17:36:12;6.97;;;2.00;;
11655;SDS011;5884;43.618;1.438;2023-04-01T17:38:59;4.77;;;1.60;;
11655;SDS011;5884;43.618;1.438;2023-04-01T17:41:42;5.37;;;1.60;;
11655;SDS011;5884;43.618;1.438;2023-04-01T17:44:24;11.27;;;1.90;;
11655;SDS011;5884;43.618;1.438;2023-04-01T17:47:19;4.93;;;1.70;;
11655;SDS011;5884;43.618;1.438;2023-04-01T17:50:10;6.23;;;1.40;;
11655;SDS011;5884;43.618;1.438;2023-04-01T17:52:50;7.47;;;2.33;;
11655;SDS011;5884;43.618;1.438;2023-04-01T17:55:33;5.20;;;1.50;;
11655;SDS011;5884;43.618;1.438;2023-04-01T17:58:22;7.27;;;1.53;;
11655;SDS011;5884;43.618;1.438;2023-04-01T18:01:12;5.10;;;1.50;;
11655;SDS011;5884;43.618;1.438;2023-04-01T18:04:10;4.17;;;1.60;;
11655;SDS011;5884;43.618;1.438;2023-04-01T18:07:08;4.73;;;1.30;;
11655;SDS011;5884;43.618;1.438;2023-04-01T18:09:57;8.13;;;1.97;;
11655;SDS011;5884;43.618;1.438;2023-04-01T18:12:53;5.00;;;1.40;;
11655;SDS011;5884;43.618;1.438;2023-04-01T18:15:49;5.77;;;1.70;;
11655;SDS011;5884;43.618;1.438;2023-04-01T18:18:42;6.87;;;2.20;;
11655;SDS011;5884;43.618;1.438;2023-04-01T18:21:25;4.17;;;1.77;;
11655;SDS011;5884;43.618;1.438;2023-04-01T18:24:05;7.37;;;2.00;;
11655;SDS011;5884;43.618;1.438;2023-04-01T18:26:43;5.83;;;1.90;;
11655;SDS011;5884;43.618;1.438;2023-04-01T18:29:18;6.63;;;2.43;;
11655;SDS011;5884;43.618;1.438;2023-04-01T18:32:05;4.93;;;2.03;;
11655;SDS011;5884;43.618;1.438;2023-04-01T18:34:47;7.00;;;2.50;;
11655;SDS011;5884;43.618;1.438;2023-04-01T18:37:24;8.97;;;2.13;;
11655;SDS011;5884;43.618;1.438;2023-04-01T18:39:56;9.07;;;3.53;;
11655;SDS011;5884;43.618;1.438;2023-04-01T18:42:33;10.20;;;2.70;;
11655;SDS011;5884;43.618;1.438;2023-04-01T18:45:14;12.00;;;3.87;;
11655;SDS011;5884;43.618;1.438;2023-04-01T18:47:50;7.87;;;2.47;;
11655;SDS011;5884;43.618;1.438;2023-04-01T18:50:32;11.87;;;2.90;;
11655;SDS011;5884;43.618;1.438;2023-04-01T18:53:13;8.57;;;3.10;;
11655;SDS011;5884;43.618;1.438;2023-04-01T18:55:51;10.97;;;2.93;;
11655;SDS011;5884;43.618;1.438;2023-04-01T18:58:26;8.83;;;3.60;;
11655;SDS011;5884;43.618;1.438;2023-04-01T19:01:15;8.50;;;2.50;;
11655;SDS011;5884;43.618;1.438;2023-04-01T19:03:53;4.80;;;1.83;;
11655;SDS011;5884;43.618;1.438;2023-04-01T19:06:32;7.07;;;1.90;;
11655;SDS011;5884;43.618;1.438;2023-04-01T19:09:19;8.30;;;2.17;;
11655;SDS011;5884;43.618;1.438;2023-04-01T19:12:02;5.63;;;2.30;;
11655;SDS011;5884;43.618;1.438;2023-04-01T19:15:02;6.97;;;2.60;;
11655;SDS011;5884;43.618;1.438;2023-04-01T19:17:54;10.53;;;2.93;;
11655;SDS011;5884;43.618;1.438;2023-04-01T19:20:41;12.40;;;2.70;;
11655;SDS011;5884;43.618;1.438;2023-04-01T19:23:20;6.90;;;2.20;;
11655;SDS011;5884;43.618;1.438;2023-04-01T19:26:32;7.03;;;2.30;;
11655;SDS011;5884;43.618;1.438;2023-04-01T19:29:06;6.83;;;1.70;;
11655;SDS011;5884;43.618;1.438;2023-04-01T19:31:54;7.20;;;2.60;;
11655;SDS011;5884;43.618;1.438;2023-04-01T19:34:36;9.10;;;2.37;;
11655;SDS011;5884;43.618;1.438;2023-04-01T19:37:20;7.50;;;2.50;;
11655;SDS011;5884;43.618;1.438;2023-04-01T19:39:57;8.53;;;2.73;;
11655;SDS011;5884;43.618;1.438;2023-04-01T19:42:40;9.30;;;2.13;;
11655;SDS011;5884;43.618;1.438;2023-04-01T19:45:22;7.93;;;2.60;;
11655;SDS011;5884;43.618;1.438;2023-04-01T19:48:04;10.90;;;3.00;;
11655;SDS011;5884;43.618;1.438;2023-04-01T19:50:49;8.20;;;2.20;;
11655;SDS011;5884;43.618;1.438;2023-04-01T19:53:24;7.57;;;2.70;;
11655;SDS011;5884;43.618;1.438;2023-04-01T19:56:00;8.43;;;2.50;;
11655;SDS011;5884;43.618;1.438;2023-04-01T19:58:43;7.87;;;2.57;;
11655;SDS011;5884;43.618;1.438;2023-04-01T20:01:17;7.33;;;2.87;;
11655;SDS011;5884;43.618;1.438;2023-04-01T20:03:54;7.50;;;2.50;;
11655;SDS011;5884;43.618;1.438;2023-04-01T20:06:28;9.60;;;2.50;;
11655;SDS011;5884;43.618;1.438;2023-04-01T20:09:13;8.10;;;2.23;;
11655;SDS011;5884;43.618;1.438;2023-04-01T20:12:03;9.67;;;2.57;;
11655;SDS011;5884;43.618;1.438;2023-04-01T20:14:41;7.07;;;2.70;;
11655;SDS011;5884;43.618;1.438;2023-04-01T20:17:18;6.60;;;2.47;;
11655;SDS011;5884;43.618;1.438;2023-04-01T20:19:51;6.90;;;2.20;;
11655;SDS011;5884;43.618;1.438;2023-04-01T20:22:29;10.80;;;2.67;;
11655;SDS011;5884;43.618;1.438;2023-04-01T20:25:16;8.73;;;2.50;;
11655;SDS011;5884;43.618;1.438;2023-04-01T20:27:49;9.50;;;2.60;;
11655;SDS011;5884;43.618;1.438;2023-04-01T20:30:33;7.40;;;3.00;;
11655;SDS011;5884;43.618;1.438;2023-04-01T20:33:43;10.53;;;2.43;;
11655;SDS011;5884;43.618;1.438;2023-04-01T20:36:30;8.07;;;2.07;;
11655;SDS011;5884;43.618;1.438;2023-04-01T20:39:18;8.40;;;2.67;;
11655;SDS011;5884;43.618;1.438;2023-04-01T20:42:24;7.70;;;2.60;;
11655;SDS011;5884;43.618;1.438;2023-04-01T20:45:10;7.23;;;2.10;;
11655;SDS011;5884;43.618;1.438;2023-04-01T20:47:59;7.63;;;2.47;;
11655;SDS011;5884;43.618;1.438;2023-04-01T20:50:50;12.83;;;2.43;;
11655;SDS011;5884;43.618;1.438;2023-04-01T20:53:20;9.30;;;2.20;;
11655;SDS011;5884;43.618;1.438;2023-04-01T20:58:52;14.87;;;3.10;;
